Terminal Aerodrome Forecast
Issued by NWS

Home | Current Version | Previous Version | Text Only | Print | Product List | Glossary On
Versions: 1 2 3 4 5 6 7 8 9 10 11 12 13 14 15 16 17 18 19 20 21 22 23 24 25 26
000
FTUS44 KBMX 301318 AAA
TAFEET
TAF AMD
KEET 301318Z 3013/3112 00000KT 6SM -SHRA BR BKN007 OVC015
     FM301600 VRB03KT 6SM BR VCSH BKN015
     FM301800 02004KT 6SM -SHRA BR SCT035 OVC050
     FM302300 00000KT P6SM OVC050
      TEMPO 3108/3112 3SM BR OVC015=

USA.gov is the U.S. government's official web portal to all federal, state and local government web resources and services.